createdAt,value
2022-11-06T00:00:46.376Z,12.75
2022-11-06T00:02:20.819Z,12.88
2022-11-06T00:03:53.559Z,12.15
2022-11-06T00:05:45.447Z,11.73
2022-11-06T00:07:17.185Z,13.23
2022-11-06T00:08:48.691Z,11.63
2022-11-06T00:10:20.341Z,14.50
2022-11-06T00:11:52.992Z,14.77
2022-11-06T00:13:24.909Z,18.02
2022-11-06T00:14:56.481Z,17.30
2022-11-06T00:16:28.555Z,14.10
2022-11-06T00:18:00.153Z,13.60
2022-11-06T00:19:31.714Z,11.50
2022-11-06T00:21:10.861Z,13.45
2022-11-06T00:22:42.775Z,14.48
2022-11-06T00:24:15.649Z,15.82
2022-11-06T00:25:47.224Z,16.25
2022-11-06T00:27:19.186Z,15.35
2022-11-06T00:28:51.805Z,14.38
2022-11-06T00:30:23.664Z,13.02
2022-11-06T00:31:55.200Z,13.32
2022-11-06T00:33:26.787Z,15.45
2022-11-06T00:34:58.490Z,17.13
2022-11-06T00:36:31.138Z,16.90
2022-11-06T00:38:02.703Z,13.82
2022-11-06T00:39:34.264Z,11.68
2022-11-06T00:41:08.410Z,15.23
2022-11-06T00:42:40.018Z,17.08
2022-11-06T00:44:11.791Z,16.75
2022-11-06T00:45:43.836Z,15.55
2022-11-06T00:47:15.560Z,15.55
2022-11-06T00:48:47.593Z,12.73
2022-11-06T00:50:19.571Z,13.73
2022-11-06T00:51:51.357Z,14.73
2022-11-06T00:53:22.937Z,17.70
2022-11-06T00:54:54.562Z,20.10
2022-11-06T00:56:27.080Z,18.05
2022-11-06T00:57:58.756Z,15.80
2022-11-06T00:59:30.325Z,14.20
2022-11-06T01:01:12.951Z,14.52
2022-11-06T01:02:45.686Z,18.27
2022-11-06T01:04:23.167Z,17.88
2022-11-06T01:05:54.691Z,13.30
2022-11-06T01:07:26.330Z,11.80
2022-11-06T01:08:57.963Z,15.75
2022-11-06T01:10:29.918Z,13.55
2022-11-06T01:12:16.929Z,14.50
2022-11-06T01:13:51.665Z,14.18
2022-11-06T01:15:23.239Z,15.25
2022-11-06T01:16:55.037Z,18.60
2022-11-06T01:18:26.611Z,17.48
2022-11-06T01:19:58.157Z,14.30
2022-11-06T01:21:36.073Z,13.32
2022-11-06T01:23:07.609Z,17.40
2022-11-06T01:24:39.479Z,14.05
2022-11-06T01:26:13.285Z,14.40
2022-11-06T01:27:44.829Z,12.23
2022-11-06T01:29:18.435Z,13.07
2022-11-06T01:30:50.024Z,12.10
2022-11-06T01:32:21.695Z,17.88
2022-11-06T01:33:57.587Z,11.93
2022-11-06T01:35:29.186Z,16.83
2022-11-06T01:37:00.803Z,12.77
2022-11-06T01:38:32.335Z,13.05
2022-11-06T01:40:04.833Z,14.00
2022-11-06T01:41:42.873Z,17.45
2022-11-06T01:43:22.008Z,14.50
2022-11-06T01:45:21.568Z,13.05
2022-11-06T01:46:53.531Z,14.27
2022-11-06T01:48:28.092Z,14.60
2022-11-06T01:50:03.176Z,17.95
2022-11-06T01:51:42.222Z,11.60
2022-11-06T01:53:14.625Z,15.20
2022-11-06T01:54:51.172Z,12.68
2022-11-06T01:56:23.345Z,15.13
2022-11-06T01:57:55.347Z,14.40
2022-11-06T01:59:31.135Z,16.17
2022-11-06T02:01:04.013Z,12.43
2022-11-06T02:02:37.092Z,13.73
2022-11-06T02:04:11.006Z,13.82
2022-11-06T02:05:42.987Z,17.75
2022-11-06T02:07:15.655Z,13.40
2022-11-06T02:08:47.454Z,14.75
2022-11-06T02:10:18.989Z,18.98
2022-11-06T02:12:05.185Z,13.27
2022-11-06T02:14:02.744Z,12.88
2022-11-06T02:15:45.748Z,15.40
2022-11-06T02:17:38.811Z,15.45
2022-11-06T02:19:47.250Z,12.13
2022-11-06T02:21:24.860Z,10.50
2022-11-06T02:23:22.972Z,27.05
2022-11-06T02:25:20.312Z,28.50
2022-11-06T02:27:12.925Z,15.48
2022-11-06T02:29:00.342Z,14.48
2022-11-06T02:30:41.487Z,16.77
2022-11-06T02:32:21.922Z,16.33
2022-11-06T02:33:59.230Z,19.52
2022-11-06T02:35:43.422Z,17.95
2022-11-06T02:37:20.658Z,13.70
2022-11-06T02:38:58.026Z,27.30
2022-11-06T02:40:33.256Z,28.38
2022-11-06T02:42:07.525Z,16.60
2022-11-06T02:43:45.659Z,19.10
2022-11-06T02:45:19.332Z,23.55
2022-11-06T02:46:55.318Z,32.70
2022-11-06T02:48:32.349Z,45.42
2022-11-06T02:50:08.623Z,38.72
2022-11-06T02:51:45.809Z,28.77
2022-11-06T02:53:23.086Z,28.02
2022-11-06T02:55:04.502Z,18.88
2022-11-06T02:56:43.988Z,12.23
2022-11-06T02:58:33.113Z,15.95
2022-11-06T03:00:10.373Z,10.88
2022-11-06T03:01:51.696Z,12.45
2022-11-06T03:03:25.522Z,10.10
2022-11-06T03:05:20.515Z,13.43
2022-11-06T03:06:59.902Z,12.60
2022-11-06T03:08:31.777Z,11.13
2022-11-06T03:10:06.177Z,13.60
2022-11-06T03:11:41.068Z,11.45
2022-11-06T03:13:19.355Z,14.68
2022-11-06T03:15:15.735Z,10.73
2022-11-06T03:16:58.670Z,10.00
2022-11-06T03:18:48.226Z,19.92
2022-11-06T03:20:36.332Z,10.00
2022-11-06T03:22:42.594Z,25.17
2022-11-06T03:24:18.593Z,20.45
2022-11-06T03:26:07.444Z,13.35
2022-11-06T03:29:17.333Z,14.30
2022-11-06T03:30:57.136Z,15.00
2022-11-06T03:32:37.930Z,11.55
2022-11-06T03:34:15.249Z,11.52
2022-11-06T03:36:16.197Z,12.23
2022-11-06T03:38:03.567Z,11.77
2022-11-06T03:39:40.641Z,10.88
2022-11-06T03:41:22.526Z,12.10
2022-11-06T03:42:59.040Z,14.52
2022-11-06T03:44:32.844Z,9.93
2022-11-06T03:46:07.541Z,16.42
2022-11-06T03:47:45.128Z,15.45
2022-11-06T03:49:22.776Z,12.00
2022-11-06T03:50:57.399Z,11.20
2022-11-06T03:52:39.255Z,14.88
2022-11-06T03:54:18.842Z,19.00
2022-11-06T03:55:57.982Z,10.43
2022-11-06T03:57:42.814Z,12.68
2022-11-06T03:59:18.530Z,16.23
2022-11-06T04:00:52.002Z,12.05
2022-11-06T04:02:26.062Z,14.05
2022-11-06T04:04:14.770Z,21.35
2022-11-06T04:05:52.500Z,8.80
2022-11-06T04:07:30.735Z,11.05
2022-11-06T04:09:24.047Z,16.92
2022-11-06T04:11:18.575Z,12.00
2022-11-06T04:13:10.936Z,10.20
2022-11-06T04:14:47.169Z,9.57
2022-11-06T04:16:18.957Z,10.02
2022-11-06T04:17:50.668Z,10.80
2022-11-06T04:19:23.154Z,10.20
2022-11-06T04:21:22.368Z,9.75
2022-11-06T04:23:06.674Z,8.45
2022-11-06T04:25:15.522Z,15.07
2022-11-06T04:26:56.408Z,9.93
2022-11-06T04:28:42.203Z,10.98
2022-11-06T04:30:15.859Z,8.25
2022-11-06T04:32:01.434Z,11.65
2022-11-06T04:33:45.319Z,10.52
2022-11-06T04:35:28.995Z,7.50
2022-11-06T04:37:15.274Z,8.63
2022-11-06T04:39:07.051Z,11.15
2022-11-06T04:41:02.170Z,11.05
2022-11-06T04:43:01.083Z,9.57
2022-11-06T04:44:43.284Z,11.77
2022-11-06T04:46:23.047Z,9.80
2022-11-06T04:47:55.525Z,10.70
2022-11-06T04:49:31.146Z,9.48
2022-11-06T04:51:08.140Z,7.43
2022-11-06T04:52:40.921Z,8.93
2022-11-06T04:54:14.195Z,9.63
2022-11-06T04:55:52.028Z,11.18
2022-11-06T04:57:24.828Z,7.95
2022-11-06T04:58:57.075Z,8.57
2022-11-06T05:00:28.612Z,7.53
2022-11-06T05:02:00.307Z,8.77
2022-11-06T05:03:31.949Z,7.78
2022-11-06T05:05:03.831Z,10.80
2022-11-06T05:06:35.368Z,8.40
2022-11-06T05:08:12.636Z,8.48
2022-11-06T05:09:45.609Z,8.23
2022-11-06T05:11:17.206Z,7.50
2022-11-06T05:12:48.738Z,9.50
2022-11-06T05:14:20.383Z,7.90
2022-11-06T05:15:58.791Z,9.98
2022-11-06T05:17:35.297Z,10.10
2022-11-06T05:19:08.123Z,11.52
2022-11-06T05:20:39.725Z,12.68
2022-11-06T05:22:29.808Z,12.38
2022-11-06T05:24:01.545Z,8.60
2022-11-06T05:25:40.027Z,11.32
2022-11-06T05:27:11.697Z,9.80
2022-11-06T05:28:43.282Z,8.30
2022-11-06T05:30:14.937Z,8.48
2022-11-06T05:31:46.466Z,13.48
2022-11-06T05:33:18.029Z,13.70
2022-11-06T05:34:49.682Z,8.65
2022-11-06T05:36:22.454Z,6.97
2022-11-06T05:38:03.207Z,9.00
2022-11-06T05:39:39.046Z,9.75
2022-11-06T05:41:13.128Z,8.15
2022-11-06T05:42:45.432Z,9.05
2022-11-06T05:44:16.979Z,7.22
2022-11-06T05:45:48.518Z,9.27
2022-11-06T05:47:20.056Z,5.72
2022-11-06T05:48:51.639Z,8.43
2022-11-06T05:50:23.235Z,7.68
2022-11-06T05:51:54.793Z,7.20
2022-11-06T05:53:26.364Z,7.60
2022-11-06T05:54:57.946Z,6.80
2022-11-06T05:56:29.569Z,10.70
2022-11-06T05:58:01.074Z,8.27
2022-11-06T05:59:32.600Z,8.65
2022-11-06T06:01:04.358Z,7.90
2022-11-06T06:02:36.886Z,7.38
2022-11-06T06:04:08.583Z,7.00
2022-11-06T06:05:40.208Z,9.32
2022-11-06T06:07:11.770Z,12.80
2022-11-06T06:08:43.287Z,7.40
2022-11-06T06:10:14.801Z,8.77
2022-11-06T06:11:46.390Z,8.30
2022-11-06T06:13:17.978Z,8.57
2022-11-06T06:14:50.678Z,9.25
2022-11-06T06:16:22.495Z,8.88
2022-11-06T06:17:54.067Z,10.88
2022-11-06T06:19:25.689Z,13.30
2022-11-06T06:20:58.991Z,11.35
2022-11-06T06:22:30.496Z,10.80
2022-11-06T06:24:02.400Z,9.80
2022-11-06T06:25:33.946Z,11.30
2022-11-06T06:27:05.543Z,7.90
2022-11-06T06:28:37.075Z,11.32
2022-11-06T06:30:09.307Z,7.85
2022-11-06T06:31:40.838Z,8.05
2022-11-06T06:33:12.377Z,9.73
2022-11-06T06:34:43.931Z,7.05
2022-11-06T06:36:15.922Z,8.05
2022-11-06T06:37:52.657Z,8.82
2022-11-06T06:39:24.207Z,11.73
2022-11-06T06:40:55.743Z,9.15
2022-11-06T06:42:31.444Z,11.85
2022-11-06T06:44:14.722Z,10.40
2022-11-06T06:45:46.298Z,6.03
2022-11-06T06:47:18.213Z,9.38
2022-11-06T06:48:49.775Z,8.80
2022-11-06T06:50:21.412Z,20.85
2022-11-06T06:51:52.918Z,8.90
2022-11-06T06:53:24.923Z,11.57
2022-11-06T06:54:56.466Z,14.43
2022-11-06T06:56:28.137Z,8.07
2022-11-06T06:58:00.841Z,8.95
2022-11-06T06:59:32.440Z,7.78
2022-11-06T07:01:05.925Z,7.25
2022-11-06T07:02:37.510Z,8.48
2022-11-06T07:04:10.456Z,7.78
2022-11-06T07:05:42.154Z,7.57
2022-11-06T07:07:13.812Z,9.57
2022-11-06T07:08:45.956Z,9.43
2022-11-06T07:10:17.606Z,13.77
2022-11-06T07:11:49.333Z,26.80
2022-11-06T07:13:20.890Z,13.00
2022-11-06T07:14:52.501Z,13.60
2022-11-06T07:16:25.289Z,23.40
2022-11-06T07:18:05.161Z,13.90
2022-11-06T07:19:36.931Z,22.08
2022-11-06T07:21:11.323Z,17.30
2022-11-06T07:22:42.880Z,9.60
2022-11-06T07:24:14.475Z,14.65
2022-11-06T07:25:52.994Z,23.05
2022-11-06T07:27:24.596Z,10.25
2022-11-06T07:28:56.098Z,31.27
2022-11-06T07:30:28.090Z,14.20
2022-11-06T07:31:59.871Z,12.27
2022-11-06T07:33:32.059Z,10.38
2022-11-06T07:35:03.821Z,10.38
2022-11-06T07:36:35.979Z,10.23
2022-11-06T07:38:07.619Z,12.35
2022-11-06T07:39:39.373Z,13.85
2022-11-06T07:41:13.511Z,9.02
2022-11-06T07:42:45.416Z,14.32
2022-11-06T07:44:20.201Z,12.43
2022-11-06T07:45:51.774Z,9.07
2022-11-06T07:47:23.435Z,14.07
2022-11-06T07:48:55.109Z,14.30
2022-11-06T07:50:27.423Z,13.00
2022-11-06T07:51:59.174Z,12.05
2022-11-06T07:53:31.024Z,12.68
2022-11-06T07:55:02.778Z,12.38
2022-11-06T07:56:34.359Z,7.40
2022-11-06T07:58:05.956Z,11.63
2022-11-06T07:59:37.532Z,9.80
2022-11-06T08:01:18.305Z,10.80
2022-11-06T08:02:53.831Z,13.82
2022-11-06T08:04:25.516Z,21.95
2022-11-06T08:05:58.295Z,16.88
2022-11-06T08:07:29.977Z,15.77
2022-11-06T08:09:06.134Z,18.25
2022-11-06T08:12:14.497Z,17.55
2022-11-06T08:13:46.141Z,18.63
2022-11-06T08:15:17.740Z,17.13
2022-11-06T08:16:49.351Z,11.60
2022-11-06T08:18:20.918Z,12.70
2022-11-06T08:19:52.547Z,16.05
2022-11-06T08:21:24.166Z,20.52
2022-11-06T08:23:00.993Z,21.10
2022-11-06T08:24:32.527Z,18.55
2022-11-06T08:26:05.832Z,18.90
2022-11-06T08:27:37.915Z,18.45
2022-11-06T08:29:10.035Z,16.33
2022-11-06T08:30:41.636Z,11.70
2022-11-06T08:32:13.303Z,9.48
2022-11-06T08:33:44.963Z,9.13
2022-11-06T08:35:16.655Z,9.15
2022-11-06T08:36:52.321Z,9.27
2022-11-06T08:38:23.947Z,9.43
2022-11-06T08:39:55.519Z,9.55
2022-11-06T08:41:27.059Z,7.78
2022-11-06T08:43:00.332Z,7.68
2022-11-06T08:44:31.980Z,6.35
2022-11-06T08:46:05.468Z,7.38
2022-11-06T08:47:37.408Z,7.82
2022-11-06T08:49:10.196Z,6.68
2022-11-06T08:50:41.999Z,7.63
2022-11-06T08:52:13.798Z,6.85
2022-11-06T08:53:45.404Z,7.82
2022-11-06T08:55:17.133Z,11.32
2022-11-06T08:56:49.047Z,6.78
2022-11-06T08:58:20.679Z,9.57
2022-11-06T08:59:52.331Z,7.22
2022-11-06T09:01:24.264Z,6.45
2022-11-06T09:03:07.278Z,9.48
2022-11-06T09:04:41.442Z,8.98
2022-11-06T09:06:13.256Z,10.65
2022-11-06T09:07:44.882Z,8.23
2022-11-06T09:09:16.464Z,9.60
2022-11-06T09:10:48.053Z,7.72
2022-11-06T09:12:19.669Z,7.65
2022-11-06T09:13:51.270Z,7.40
2022-11-06T09:15:22.967Z,7.72
2022-11-06T09:16:54.784Z,6.93
2022-11-06T09:18:26.409Z,7.25
2022-11-06T09:19:58.067Z,8.18
2022-11-06T09:21:29.644Z,7.07
2022-11-06T09:23:06.305Z,6.05
2022-11-06T09:25:01.889Z,6.20
2022-11-06T09:26:29.730Z,7.25
2022-11-06T09:28:01.748Z,7.20
2022-11-06T09:29:33.568Z,6.10
2022-11-06T09:31:05.462Z,6.43
2022-11-06T09:32:37.181Z,7.47
2022-11-06T09:34:08.844Z,7.45
2022-11-06T09:35:41.460Z,7.40
2022-11-06T09:37:13.104Z,8.93
2022-11-06T09:38:44.628Z,7.53
2022-11-06T09:40:26.301Z,6.65
2022-11-06T09:42:08.382Z,6.15
2022-11-06T09:44:17.618Z,6.32
2022-11-06T09:45:54.891Z,5.28
2022-11-06T09:47:32.149Z,7.40
2022-11-06T09:49:22.512Z,5.65
2022-11-06T09:51:06.300Z,8.25
2022-11-06T09:52:53.035Z,6.38
2022-11-06T09:54:28.225Z,8.05
2022-11-06T09:56:02.489Z,6.22
2022-11-06T09:57:37.709Z,6.88
2022-11-06T09:59:14.107Z,6.75
2022-11-06T10:00:45.928Z,7.93
2022-11-06T10:02:26.693Z,7.53
2022-11-06T10:04:06.346Z,5.95
2022-11-06T10:05:41.153Z,6.15
2022-11-06T10:07:37.898Z,7.22
2022-11-06T10:09:11.419Z,8.77
2022-11-06T10:10:45.730Z,6.82
2022-11-06T10:12:24.594Z,10.27
2022-11-06T10:13:56.238Z,6.50
2022-11-06T10:15:49.113Z,7.93
2022-11-06T10:17:29.706Z,9.55
2022-11-06T10:19:10.288Z,8.00
2022-11-06T10:20:50.792Z,9.05
2022-11-06T10:22:42.237Z,6.78
2022-11-06T10:24:45.390Z,9.07
2022-11-06T10:26:19.081Z,7.85
2022-11-06T10:28:02.032Z,6.28
2022-11-06T10:29:51.983Z,8.25
2022-11-06T10:31:37.578Z,7.85
2022-11-06T10:33:34.739Z,9.10
2022-11-06T10:35:06.329Z,7.55
2022-11-06T10:37:07.423Z,7.70
2022-11-06T10:38:43.268Z,8.85
2022-11-06T10:40:22.346Z,10.13
2022-11-06T10:42:01.847Z,9.38
2022-11-06T10:43:40.216Z,9.05
2022-11-06T10:45:18.221Z,8.60
2022-11-06T10:47:00.598Z,7.10
2022-11-06T10:48:41.532Z,7.55
2022-11-06T10:50:16.435Z,6.85
2022-11-06T10:52:10.737Z,6.63
2022-11-06T10:54:27.032Z,6.88
2022-11-06T10:56:19.937Z,7.45
2022-11-06T10:57:59.477Z,7.95
2022-11-06T10:59:31.312Z,6.88
2022-11-06T11:02:35.857Z,7.90
2022-11-06T11:04:07.737Z,6.18
2022-11-06T11:05:41.517Z,6.70
2022-11-06T11:07:21.515Z,8.52
2022-11-06T11:08:53.546Z,6.80
2022-11-06T11:10:28.125Z,7.45
2022-11-06T11:12:00.850Z,7.32
2022-11-06T11:13:33.550Z,8.40
2022-11-06T11:15:26.161Z,7.32
2022-11-06T11:17:07.807Z,6.28
2022-11-06T11:18:39.481Z,6.53
2022-11-06T11:20:35.073Z,6.55
2022-11-06T11:22:28.957Z,6.95
2022-11-06T11:24:03.635Z,7.43
2022-11-06T11:25:35.552Z,8.23
2022-11-06T11:27:07.434Z,7.32
2022-11-06T11:28:41.164Z,6.97
2022-11-06T11:30:26.648Z,7.50
2022-11-06T11:32:05.139Z,7.18
2022-11-06T11:33:38.929Z,6.45
2022-11-06T11:35:11.751Z,7.88
2022-11-06T11:36:56.582Z,7.93
2022-11-06T11:38:29.129Z,8.77
2022-11-06T11:40:32.408Z,7.38
2022-11-06T11:42:17.187Z,7.18
2022-11-06T11:44:05.619Z,7.25
2022-11-06T11:45:37.271Z,7.30
2022-11-06T11:47:23.365Z,6.82
2022-11-06T11:48:58.039Z,6.40
2022-11-06T11:50:32.398Z,8.25
2022-11-06T11:52:13.338Z,10.88
2022-11-06T11:53:45.319Z,8.25
2022-11-06T11:55:20.987Z,8.05
2022-11-06T11:57:05.192Z,7.78
2022-11-06T11:58:37.895Z,7.30
2022-11-06T12:00:21.629Z,7.93
2022-11-06T12:01:56.765Z,9.90
2022-11-06T12:03:41.527Z,8.63
2022-11-06T12:05:35.363Z,10.73
2022-11-06T12:07:14.697Z,9.73
2022-11-06T12:08:51.086Z,9.38
2022-11-06T12:10:25.375Z,10.63
2022-11-06T12:12:00.379Z,10.32
2022-11-06T12:13:32.027Z,7.22
2022-11-06T12:15:26.997Z,7.57
2022-11-06T12:18:50.120Z,8.02
2022-11-06T12:20:42.236Z,8.55
2022-11-06T12:22:25.037Z,7.10
2022-11-06T12:24:02.566Z,8.30
2022-11-06T12:25:42.626Z,7.97
2022-11-06T12:27:20.427Z,8.88
2022-11-06T12:29:03.826Z,7.28
2022-11-06T12:30:39.079Z,7.40
2022-11-06T12:32:31.830Z,7.30
2022-11-06T12:34:11.983Z,6.40
2022-11-06T12:35:55.589Z,5.88
2022-11-06T12:37:39.158Z,7.82
2022-11-06T12:39:19.735Z,7.90
2022-11-06T12:41:01.774Z,7.70
2022-11-06T12:42:34.678Z,6.85
2022-11-06T12:44:11.843Z,7.28
2022-11-06T12:46:29.482Z,7.75
2022-11-06T12:48:16.313Z,6.93
2022-11-06T12:50:14.192Z,7.60
2022-11-06T12:52:04.510Z,9.00
2022-11-06T12:54:08.865Z,6.47
2022-11-06T12:55:53.986Z,7.78
2022-11-06T12:57:34.775Z,10.32
2022-11-06T12:59:09.331Z,8.43
2022-11-06T13:00:59.670Z,7.78
2022-11-06T13:03:00.697Z,9.82
2022-11-06T13:05:00.008Z,8.73
2022-11-06T13:06:50.252Z,8.80
2022-11-06T13:08:45.067Z,8.07
2022-11-06T13:10:41.135Z,7.45
2022-11-06T13:12:34.175Z,8.10
2022-11-06T13:14:43.288Z,7.93
2022-11-06T13:16:18.717Z,8.07
2022-11-06T13:18:22.475Z,6.57
2022-11-06T13:19:54.130Z,6.90
2022-11-06T13:21:56.914Z,6.70
2022-11-06T13:23:30.986Z,7.68
2022-11-06T13:25:13.107Z,8.73
2022-11-06T13:26:50.909Z,8.13
2022-11-06T13:28:30.712Z,8.48
2022-11-06T13:30:11.010Z,7.53
2022-11-06T13:31:48.141Z,7.60
2022-11-06T13:33:53.269Z,7.78
2022-11-06T13:35:25.491Z,8.15
2022-11-06T13:36:58.206Z,7.32
2022-11-06T13:38:36.550Z,8.05
2022-11-06T13:40:40.194Z,7.95
2022-11-06T13:42:19.271Z,8.85
2022-11-06T13:44:17.747Z,7.82
2022-11-06T13:46:20.104Z,8.02
2022-11-06T13:48:15.929Z,9.77
2022-11-06T13:49:55.971Z,7.97
2022-11-06T13:51:56.880Z,9.25
2022-11-06T13:53:28.503Z,8.55
2022-11-06T13:55:31.662Z,8.10
2022-11-06T13:57:31.194Z,8.35
2022-11-06T13:59:15.455Z,8.30
2022-11-06T14:00:49.940Z,9.00
2022-11-06T14:02:39.601Z,9.75
2022-11-06T14:04:54.075Z,7.72
2022-11-06T14:06:29.678Z,8.45
2022-11-06T14:08:06.947Z,9.25
2022-11-06T14:09:43.133Z,7.95
2022-11-06T14:11:21.623Z,7.53
2022-11-06T14:12:54.272Z,7.15
2022-11-06T14:14:30.452Z,9.15
2022-11-06T14:16:21.861Z,9.27
2022-11-06T14:17:58.527Z,8.10
2022-11-06T14:19:30.539Z,8.48
2022-11-06T14:21:26.870Z,10.68
2022-11-06T14:23:28.904Z,9.95
2022-11-06T14:25:02.289Z,9.52
2022-11-06T14:26:45.559Z,9.18
2022-11-06T14:28:30.041Z,8.85
2022-11-06T14:30:05.606Z,8.80
2022-11-06T14:32:06.481Z,7.07
2022-11-06T14:33:58.000Z,8.50
2022-11-06T14:35:29.620Z,9.27
2022-11-06T14:37:19.612Z,7.95
2022-11-06T14:38:52.871Z,8.63
2022-11-06T14:40:32.629Z,8.13
2022-11-06T14:42:04.300Z,7.80
2022-11-06T14:43:35.968Z,9.20
2022-11-06T14:45:10.346Z,8.85
2022-11-06T14:46:50.340Z,8.07
2022-11-06T14:48:39.583Z,9.23
2022-11-06T14:50:20.378Z,8.88
2022-11-06T14:52:01.737Z,7.85
2022-11-06T14:53:40.260Z,9.27
2022-11-06T14:55:24.135Z,10.90
2022-11-06T14:56:56.107Z,7.78
2022-11-06T14:58:47.878Z,7.90
2022-11-06T15:00:34.719Z,8.82
2022-11-06T15:02:25.389Z,9.38
2022-11-06T15:04:14.801Z,7.90
2022-11-06T15:05:51.970Z,9.73
2022-11-06T15:09:39.135Z,9.68
2022-11-06T15:11:30.844Z,9.20
2022-11-06T15:13:25.742Z,10.05
2022-11-06T15:15:02.158Z,11.27
2022-11-06T15:16:40.882Z,9.85
2022-11-06T15:18:17.304Z,9.63
2022-11-06T15:20:05.140Z,8.88
2022-11-06T15:21:44.699Z,9.85
2022-11-06T15:23:22.594Z,11.73
2022-11-06T15:25:06.437Z,10.23
2022-11-06T15:26:48.348Z,10.10
2022-11-06T15:28:23.483Z,9.50
2022-11-06T15:29:58.818Z,8.95
2022-11-06T15:31:32.540Z,9.38
2022-11-06T15:33:12.622Z,9.25
2022-11-06T15:35:07.837Z,11.10
2022-11-06T15:36:47.659Z,9.15
2022-11-06T15:38:22.916Z,9.57
2022-11-06T15:40:00.630Z,9.43
2022-11-06T15:41:33.167Z,9.88
2022-11-06T15:43:24.545Z,10.80
2022-11-06T15:45:13.042Z,10.68
2022-11-06T15:46:58.830Z,10.38
2022-11-06T15:48:30.511Z,8.57
2022-11-06T15:50:16.743Z,10.57
2022-11-06T15:52:02.643Z,12.20
2022-11-06T15:53:40.604Z,10.60
2022-11-06T15:55:23.425Z,9.35
2022-11-06T15:56:55.473Z,9.40
2022-11-06T15:58:32.388Z,11.85
2022-11-06T16:00:17.131Z,8.98
2022-11-06T16:01:49.364Z,9.80
2022-11-06T16:03:24.090Z,12.57
2022-11-06T16:04:55.761Z,11.85
2022-11-06T16:06:27.369Z,10.10
2022-11-06T16:08:00.778Z,10.02
2022-11-06T16:09:33.002Z,11.25
2022-11-06T16:11:08.097Z,14.27
2022-11-06T16:12:43.424Z,11.43
2022-11-06T16:14:15.532Z,10.43
2022-11-06T16:16:31.448Z,11.63
2022-11-06T16:18:05.323Z,10.50
2022-11-06T16:19:39.515Z,12.98
2022-11-06T16:21:21.313Z,12.93
2022-11-06T16:22:52.961Z,17.52
2022-11-06T16:24:28.720Z,12.57
2022-11-06T16:26:04.017Z,15.00
2022-11-06T16:27:40.151Z,15.45
2022-11-06T16:29:23.880Z,15.55
2022-11-06T16:31:22.790Z,11.93
2022-11-06T16:32:54.543Z,11.38
2022-11-06T16:34:31.961Z,12.70
2022-11-06T16:36:12.313Z,10.40
2022-11-06T16:37:44.241Z,13.30
2022-11-06T16:39:40.297Z,14.80
2022-11-06T16:41:39.760Z,15.15
2022-11-06T16:43:17.187Z,14.48
2022-11-06T16:44:50.908Z,13.50
2022-11-06T16:46:22.712Z,11.10
2022-11-06T16:48:06.708Z,11.98
2022-11-06T16:49:40.930Z,13.68
2022-11-06T16:51:31.081Z,10.98
2022-11-06T16:53:02.800Z,13.00
2022-11-06T16:54:34.855Z,12.48
2022-11-06T16:56:07.442Z,12.73
2022-11-06T16:57:47.279Z,12.98
2022-11-06T16:59:24.837Z,10.90
2022-11-06T17:01:02.421Z,12.55
2022-11-06T17:02:37.388Z,14.63
2022-11-06T17:04:29.937Z,14.88
2022-11-06T17:06:01.838Z,13.50
2022-11-06T17:07:33.836Z,14.00
2022-11-06T17:09:23.761Z,14.55
2022-11-06T17:11:01.736Z,13.50
2022-11-06T17:12:33.418Z,12.35
2022-11-06T17:14:17.916Z,13.30
2022-11-06T17:16:00.938Z,14.07
2022-11-06T17:17:37.615Z,13.93
2022-11-06T17:19:11.544Z,16.48
2022-11-06T17:20:49.092Z,12.63
2022-11-06T17:22:22.838Z,11.30
2022-11-06T17:24:00.224Z,11.27
2022-11-06T17:25:35.722Z,10.90
2022-11-06T17:27:07.333Z,11.77
2022-11-06T17:28:38.989Z,9.35
2022-11-06T17:30:15.599Z,9.60
2022-11-06T17:31:50.037Z,8.02
2022-11-06T17:33:22.070Z,10.30
2022-11-06T17:34:53.648Z,9.02
2022-11-06T17:36:28.108Z,10.27
2022-11-06T17:38:04.527Z,10.70
2022-11-06T17:39:38.684Z,8.18
2022-11-06T17:41:10.433Z,8.88
2022-11-06T17:42:42.079Z,13.27
2022-11-06T17:44:13.973Z,13.25
2022-11-06T17:45:48.051Z,12.45
2022-11-06T17:47:19.720Z,11.38
2022-11-06T17:48:51.441Z,10.73
2022-11-06T17:50:23.311Z,11.27
2022-11-06T17:52:00.794Z,10.60
2022-11-06T17:53:32.536Z,9.52
2022-11-06T17:55:06.046Z,11.55
2022-11-06T17:56:38.415Z,12.00
2022-11-06T17:58:09.977Z,11.10
2022-11-06T17:59:41.567Z,10.15
2022-11-06T18:01:13.396Z,8.93
2022-11-06T18:03:02.212Z,8.02
2022-11-06T18:04:34.391Z,7.85
2022-11-06T18:06:09.907Z,8.00
2022-11-06T18:07:41.455Z,7.70
2022-11-06T18:09:14.744Z,8.13
2022-11-06T18:10:53.937Z,6.88
2022-11-06T18:12:27.526Z,8.88
2022-11-06T18:13:59.444Z,7.20
2022-11-06T18:15:34.726Z,9.38
2022-11-06T18:17:06.632Z,8.65
2022-11-06T18:18:40.572Z,8.95
2022-11-06T18:20:12.331Z,9.82
2022-11-06T18:21:44.087Z,10.73
2022-11-06T18:23:16.384Z,10.68
2022-11-06T18:24:47.921Z,8.88
2022-11-06T18:26:23.097Z,8.75
2022-11-06T18:27:57.290Z,8.20
2022-11-06T18:29:31.182Z,9.52
2022-11-06T18:31:02.874Z,8.68
2022-11-06T18:32:34.436Z,8.85
2022-11-06T18:34:06.921Z,10.15
2022-11-06T18:35:38.461Z,11.73
2022-11-06T18:37:10.116Z,10.50
2022-11-06T18:38:42.774Z,11.65
2022-11-06T18:40:14.530Z,9.43
2022-11-06T18:41:46.226Z,11.10
2022-11-06T18:43:17.995Z,11.15
2022-11-06T18:44:49.608Z,9.63
2022-11-06T18:46:21.448Z,9.55
2022-11-06T18:47:53.121Z,9.85
2022-11-06T18:49:24.909Z,10.02
2022-11-06T18:50:56.682Z,9.57
2022-11-06T18:52:55.859Z,10.07
2022-11-06T18:54:20.057Z,9.63
2022-11-06T18:55:52.545Z,11.75
2022-11-06T18:57:24.948Z,10.77
2022-11-06T18:58:56.885Z,11.20
2022-11-06T19:00:28.692Z,15.18
2022-11-06T19:02:00.462Z,11.15
2022-11-06T19:03:32.313Z,12.32
2022-11-06T19:05:04.260Z,10.95
2022-11-06T19:06:37.968Z,13.15
2022-11-06T19:08:10.149Z,10.45
2022-11-06T19:09:41.924Z,14.45
2022-11-06T19:11:15.302Z,12.70
2022-11-06T19:12:47.013Z,13.75
2022-11-06T19:14:18.762Z,14.13
2022-11-06T19:15:50.412Z,10.45
2022-11-06T19:17:22.155Z,11.32
2022-11-06T19:20:33.235Z,10.05
2022-11-06T19:22:04.859Z,10.82
2022-11-06T19:23:38.470Z,11.43
2022-11-06T19:25:10.062Z,11.68
2022-11-06T19:26:41.979Z,11.07
2022-11-06T19:28:13.973Z,12.52
2022-11-06T19:29:45.992Z,11.70
2022-11-06T19:31:18.035Z,12.25
2022-11-06T19:32:49.637Z,11.13
2022-11-06T19:34:25.485Z,10.27
2022-11-06T19:35:59.682Z,12.45
2022-11-06T19:37:32.327Z,10.60
2022-11-06T19:39:04.911Z,11.27
2022-11-06T19:40:36.454Z,11.07
2022-11-06T19:42:08.033Z,11.23
2022-11-06T19:43:39.726Z,10.50
2022-11-06T19:45:11.416Z,12.13
2022-11-06T19:46:43.100Z,13.57
2022-11-06T19:48:14.950Z,8.38
2022-11-06T19:49:46.655Z,7.90
2022-11-06T19:51:18.366Z,10.38
2022-11-06T19:52:53.431Z,8.70
2022-11-06T19:54:25.352Z,10.38
2022-11-06T19:55:56.906Z,7.00
2022-11-06T19:57:30.523Z,9.70
2022-11-06T19:59:02.829Z,8.43
2022-11-06T20:00:34.413Z,7.97
2022-11-06T20:02:06.094Z,8.23
2022-11-06T20:03:37.748Z,9.15
2022-11-06T20:05:09.988Z,10.45
2022-11-06T20:06:42.017Z,9.50
2022-11-06T20:08:14.269Z,7.93
2022-11-06T20:09:45.893Z,7.78
2022-11-06T20:11:17.492Z,6.55
2022-11-06T20:12:49.205Z,6.70
2022-11-06T20:14:21.845Z,6.65
2022-11-06T20:15:57.374Z,7.03
2022-11-06T20:17:29.026Z,5.05
2022-11-06T20:19:00.815Z,10.93
2022-11-06T20:20:36.144Z,6.78
2022-11-06T20:23:39.976Z,7.70
2022-11-06T20:25:11.763Z,9.68
2022-11-06T20:26:43.571Z,8.82
2022-11-06T20:28:15.306Z,7.63
2022-11-06T20:29:46.930Z,8.88
2022-11-06T20:31:19.894Z,8.77
2022-11-06T20:32:51.559Z,8.98
2022-11-06T20:34:23.168Z,8.95
2022-11-06T20:35:54.757Z,10.48
2022-11-06T20:37:27.522Z,9.10
2022-11-06T20:39:00.589Z,11.27
2022-11-06T20:40:34.561Z,9.88
2022-11-06T20:42:06.424Z,10.57
2022-11-06T20:43:38.027Z,11.98
2022-11-06T20:45:09.953Z,12.40
2022-11-06T20:46:41.746Z,11.13
2022-11-06T20:48:13.354Z,12.70
2022-11-06T20:49:44.992Z,10.93
2022-11-06T20:51:27.522Z,11.90
2022-11-06T20:52:59.758Z,11.82
2022-11-06T20:54:31.342Z,16.48
2022-11-06T20:56:06.233Z,17.02
2022-11-06T20:57:37.889Z,13.50
2022-11-06T20:59:10.260Z,14.27
2022-11-06T21:00:41.908Z,13.63
2022-11-06T21:02:13.701Z,13.02
2022-11-06T21:03:47.490Z,11.55
2022-11-06T21:05:19.476Z,8.60
2022-11-06T21:06:51.094Z,9.43
2022-11-06T21:08:22.945Z,10.10
2022-11-06T21:09:54.627Z,11.32
2022-11-06T21:11:27.679Z,11.95
2022-11-06T21:12:59.359Z,11.75
2022-11-06T21:14:31.514Z,13.45
2022-11-06T21:16:06.698Z,18.30
2022-11-06T21:17:42.621Z,16.52
2022-11-06T21:19:14.290Z,18.25
2022-11-06T21:20:45.908Z,16.70
2022-11-06T21:22:17.568Z,18.02
2022-11-06T21:23:50.424Z,17.27
2022-11-06T21:25:22.411Z,16.02